Time;durP1;ratioP1;P1;durP2;ratioP2;P2;SDS_P1;SDS_P2;PMS_P1;PMS_P2;Temp;Humidity;BMP_temperature;BMP_pressure;BME280_temperature;BME280_humidity;BME280_pressure;Samples;Min_cycle;Max_cycle;Signal;HPM_P1;HPM_P2
2022/05/17 00:01:13;;;;;;;2.42;1.77;;;;;;;13.29;52.69;96632.55;1711019;82;21099;-87
2022/05/17 00:03:39;;;;;;;3.62;1.98;;;;;;;13.28;52.56;96625.72;1720008;82;20982;-87
2022/05/17 00:06:06;;;;;;;2.12;1.55;;;;;;;13.27;52.68;96617.59;1732052;82;21451;-87
2022/05/17 00:08:33;;;;;;;3.22;2.00;;;;;;;13.26;52.88;96619.89;1753944;81;21384;-87
2022/05/17 00:10:59;;;;;;;2.42;1.60;;;;;;;13.26;53.01;96618.59;1757979;81;21049;-86
2022/05/17 00:13:25;;;;;;;3.90;1.57;;;;;;;13.27;53.01;96621.50;1781230;80;21020;-87
2022/05/17 00:15:54;;;;;;;4.62;1.90;;;;;;;13.06;53.38;96580.63;1775741;79;21024;-87
2022/05/17 00:18:22;;;;;;;3.27;1.75;;;;;;;13.26;53.52;96614.17;1762216;80;21006;-87
2022/05/17 00:20:47;;;;;;;3.83;1.65;;;;;;;13.26;53.16;96611.56;1760801;80;21004;-87
2022/05/17 00:23:15;;;;;;;3.67;1.92;;;;;;;13.26;53.03;96606.84;1779308;80;21031;-87
2022/05/17 00:25:42;;;;;;;4.22;1.45;;;;;;;13.26;53.39;96600.32;1774789;80;21046;-87
2022/05/17 00:28:08;;;;;;;4.00;1.47;;;;;;;13.25;53.63;96604.73;1733074;80;20978;-87
2022/05/17 00:30:34;;;;;;;4.00;1.72;;;;;;;13.25;53.84;96600.02;1779025;80;21013;-87
2022/05/17 00:33:00;;;;;;;3.00;1.57;;;;;;;13.25;54.05;96599.52;1747193;79;21025;-87
2022/05/17 00:35:25;;;;;;;3.27;1.60;;;;;;;13.26;54.34;96600.32;1764410;80;21002;-87
2022/05/17 00:37:51;;;;;;;4.67;1.70;;;;;;;13.25;54.57;96598.22;1772562;80;21020;-86
2022/05/17 00:40:18;;;;;;;2.37;1.60;;;;;;;13.24;54.68;96590.08;1749196;80;21350;-87
2022/05/17 00:42:44;;;;;;;5.03;1.77;;;;;;;13.25;54.99;96592.19;1764517;80;21043;-87
2022/05/17 00:45:10;;;;;;;3.40;1.80;;;;;;;13.25;55.11;96594.80;1773073;80;21021;-87
2022/05/17 00:47:45;;;;;;;3.65;1.90;;;;;;;13.26;55.28;96600.32;1791771;79;21073;-87
2022/05/17 00:50:33;;;;;;;2.35;1.60;;;;;;;13.25;55.43;96588.28;1777326;80;21009;-87
2022/05/17 00:53:03;;;;;;;3.08;1.72;;;;;;;13.25;55.63;96592.19;1774125;80;21030;-87
2022/05/17 00:55:37;;;;;;;4.95;1.90;;;;;;;13.25;55.48;96593.49;1767023;80;21467;-87
2022/05/17 00:58:16;;;;;;;2.92;1.95;;;;;;;13.24;55.40;96587.47;1753590;80;21416;-86
2022/05/17 01:00:49;;;;;;;3.27;2.02;;;;;;;13.24;55.57;96581.45;1776192;80;21396;-87
2022/05/17 01:03:16;;;;;;;3.15;1.90;;;;;;;13.23;55.78;96581.95;1749609;79;21437;-87
2022/05/17 01:05:45;;;;;;;3.92;2.12;;;;;;;13.24;55.75;96581.45;1767107;80;21083;-86
2022/05/17 01:08:12;;;;;;;2.37;1.57;;;;;;;13.24;55.72;96585.36;1779482;80;21055;-87
2022/05/17 01:10:38;;;;;;;4.15;2.37;;;;;;;13.23;55.58;96578.03;1778939;80;21012;-86
2022/05/17 01:15:49;;;;;;;2.98;1.50;;;;;;;13.21;55.70;96570.41;1773653;80;21070;-86
2022/05/17 01:18:16;;;;;;;2.20;1.77;;;;;;;13.21;55.73;96571.70;1775870;80;21444;-86
2022/05/17 01:20:43;;;;;;;3.47;1.90;;;;;;;13.20;55.99;96573.20;1782166;80;21024;-87
2022/05/17 01:23:09;;;;;;;2.62;1.92;;;;;;;13.20;56.06;96571.91;1791752;80;21073;-87
2022/05/17 01:25:35;;;;;;;3.27;1.95;;;;;;;13.19;56.08;96576.31;1776977;80;21096;-87
2022/05/17 01:28:11;;;;;;;3.02;1.90;;;;;;;13.19;56.48;96570.30;1772016;80;21452;-87
2022/05/17 01:30:37;;;;;;;2.98;2.02;;;;;;;13.18;56.82;96571.30;1776167;79;21044;-87
2022/05/17 01:33:03;;;;;;;5.55;2.47;;;;;;;13.18;56.54;96568.69;1779072;80;20995;-87
2022/05/17 01:35:29;;;;;;;4.42;2.30;;;;;;;13.17;56.39;96566.52;1766325;80;21022;-87
2022/05/17 01:37:56;;;;;;;4.65;2.65;;;;;;;13.16;56.44;96571.92;1749836;80;21041;-86
2022/05/17 01:40:23;;;;;;;4.80;2.95;;;;;;;13.15;56.60;96572.42;1778611;80;21432;-87
2022/05/17 01:42:49;;;;;;;6.08;2.72;;;;;;;13.15;56.50;96568.52;1750355;80;21085;-86
2022/05/17 01:45:15;;;;;;;4.37;2.52;;;;;;;13.14;56.45;96572.13;1765014;80;21060;-86
2022/05/17 01:47:41;;;;;;;5.10;2.67;;;;;;;13.14;56.72;96570.82;1784880;80;21452;-87
2022/05/17 01:50:08;;;;;;;4.70;2.17;;;;;;;13.13;56.78;96569.21;1766198;80;21082;-87
2022/05/17 01:52:34;;;;;;;3.77;2.37;;;;;;;13.12;57.06;96557.17;1770497;80;21063;-87
2022/05/17 01:55:00;;;;;;;3.25;1.92;;;;;;;13.12;57.21;96562.38;1785515;80;21038;-87
2022/05/17 01:57:26;;;;;;;2.98;2.17;;;;;;;13.11;57.34;96560.78;1763715;80;21074;-86
2022/05/17 01:59:52;;;;;;;3.92;2.33;;;;;;;13.09;57.38;96556.25;1775534;80;21370;-87
2022/05/17 02:02:18;;;;;;;5.72;2.60;;;;;;;13.08;57.43;96548.13;1780530;80;21091;-86
2022/05/17 02:04:43;;;;;;;3.17;1.77;;;;;;;13.08;57.49;96544.71;1781034;80;21103;-86
2022/05/17 02:07:10;;;;;;;3.33;2.42;;;;;;;13.07;57.38;96536.08;1770770;80;21005;-87
2022/05/17 02:09:36;;;;;;;6.83;2.60;;;;;;;13.07;57.25;96542.60;1780515;80;21382;-86
2022/05/17 02:12:02;;;;;;;3.98;2.60;;;;;;;13.07;57.20;96546.52;1769954;80;21015;-86
2022/05/17 02:14:28;;;;;;;3.98;2.22;;;;;;;13.06;57.49;96541.49;1779958;80;20966;-86
2022/05/17 02:16:53;;;;;;;3.40;2.35;;;;;;;13.07;57.45;96547.02;1771786;80;21033;-87
2022/05/17 02:19:20;;;;;;;2.72;1.70;;;;;;;13.06;57.66;96538.38;1754988;80;21017;-87
2022/05/17 02:21:49;;;;;;;2.85;1.85;;;;;;;13.07;57.90;96535.27;1741773;80;21002;-87
2022/05/17 02:24:15;;;;;;;4.75;1.80;;;;;;;13.06;57.83;96533.17;1748384;80;21037;-86
2022/05/17 02:26:41;;;;;;;2.95;1.40;;;;;;;13.06;57.87;96534.47;1755873;80;21009;-87
2022/05/17 02:29:08;;;;;;;2.33;1.50;;;;;;;13.05;57.85;96531.56;1761499;80;21093;-86
2022/05/17 02:31:34;;;;;;;5.00;1.87;;;;;;;13.07;58.01;96532.67;1755920;80;21089;-87
2022/05/17 02:34:00;;;;;;;2.98;1.40;;;;;;;13.07;57.90;96528.25;1781303;80;21133;-86
2022/05/17 02:36:26;;;;;;;2.27;1.67;;;;;;;12.86;57.83;96494.45;1762549;80;21551;-86
2022/05/17 02:38:52;;;;;;;2.85;1.47;;;;;;;13.09;57.69;96525.45;1732978;80;21050;-86
2022/05/17 02:41:19;;;;;;;2.45;1.37;;;;;;;13.10;57.75;96530.47;1777510;80;21021;-87
2022/05/17 02:43:48;;;;;;;2.45;1.50;;;;;;;13.11;58.07;96528.16;1767040;80;21034;-86
2022/05/17 02:46:14;;;;;;;2.92;1.27;;;;;;;13.12;58.03;96527.16;1728097;82;21137;-86
2022/05/17 02:48:39;;;;;;;4.72;1.67;;;;;;;13.14;57.79;96529.58;1727554;82;21105;-87
2022/05/17 02:51:16;;;;;;;1.75;1.57;;;;;;;13.14;57.87;96532.98;1748003;82;21081;-86
2022/05/17 02:53:42;;;;;;;4.20;1.72;;;;;;;13.17;58.18;96538.31;1768675;80;21075;-87
2022/05/17 02:56:08;;;;;;;3.17;1.85;;;;;;;13.17;58.37;96537.81;1768938;80;21116;-87
2022/05/17 02:58:34;;;;;;;3.08;1.32;;;;;;;13.17;58.45;96531.30;1788364;80;21073;-87
2022/05/17 03:01:00;;;;;;;2.98;1.65;;;;;;;13.18;58.37;96533.46;1777541;79;21107;-86
2022/05/17 03:03:26;;;;;;;3.75;1.57;;;;;;;13.19;58.34;96535.07;1782807;80;21074;-87
2022/05/17 03:05:52;;;;;;;3.33;1.60;;;;;;;13.19;58.37;96533.27;1774847;80;21124;-87
2022/05/17 03:08:17;;;;;;;3.27;1.72;;;;;;;13.21;58.47;96541.70;1790487;80;21024;-87
2022/05/17 03:10:44;;;;;;;3.70;1.70;;;;;;;13.23;58.71;96543.31;1776346;80;20973;-87
2022/05/17 03:13:11;;;;;;;3.37;2.00;;;;;;;13.23;58.66;96548.53;1767350;80;21393;-87
2022/05/17 03:15:37;;;;;;;3.80;1.92;;;;;;;13.24;58.51;96547.53;1772564;80;21494;-87
2022/05/17 03:18:03;;;;;;;4.80;1.70;;;;;;;13.25;58.59;96557.77;1774482;80;21059;-87
2022/05/17 03:20:28;;;;;;;3.80;1.82;;;;;;;13.24;58.75;96562.69;1784515;80;21077;-87
2022/05/17 03:22:56;;;;;;;6.42;2.22;;;;;;;13.26;58.64;96561.19;1779779;80;21037;-86
2022/05/17 03:25:23;;;;;;;4.53;1.92;;;;;;;13.25;58.63;96560.88;1763961;80;21039;-86
2022/05/17 03:27:51;;;;;;;3.85;2.20;;;;;;;13.25;58.98;96571.31;1770699;80;21431;-87
2022/05/17 03:30:17;;;;;;;5.30;3.10;;;;;;;13.25;59.50;96580.45;1765178;80;21084;-87
2022/05/17 03:32:43;;;;;;;5.10;3.75;;;;;;;13.24;59.49;96595.80;1763943;80;21068;-87
2022/05/17 03:35:09;;;;;;;5.95;4.15;;;;;;;13.21;59.61;96600.41;1768922;80;21053;-87
2022/05/17 03:37:35;;;;;;;8.80;5.35;;;;;;;13.17;59.49;96599.63;1766591;80;21037;-86
2022/05/17 03:40:01;;;;;;;10.20;5.62;;;;;;;13.11;59.19;96599.10;1744074;80;21069;-87
2022/05/17 03:42:26;;;;;;;10.45;6.45;;;;;;;13.09;59.22;96597.99;1775796;80;21096;-86
2022/05/17 03:44:52;;;;;;;10.68;5.50;;;;;;;13.08;59.10;96593.77;1781361;80;20974;-87
2022/05/17 03:47:18;;;;;;;9.23;5.25;;;;;;;13.09;59.65;96592.77;1771192;80;21027;-87
2022/05/17 03:49:44;;;;;;;7.03;5.67;;;;;;;13.10;59.90;96604.02;1751998;80;21145;-86
2022/05/17 03:52:09;;;;;;;8.40;5.00;;;;;;;13.10;60.05;96600.10;1738823;81;21996;-87
2022/05/17 03:54:37;;;;;;;7.55;5.30;;;;;;;13.09;60.35;96595.38;1765073;80;21087;-86
2022/05/17 03:57:04;;;;;;;9.98;5.17;;;;;;;13.09;60.51;96594.58;1771465;80;21452;-87
2022/05/17 03:59:30;;;;;;;7.30;4.78;;;;;;;13.10;60.78;96600.10;1777427;80;20992;-87
2022/05/17 04:01:55;;;;;;;8.38;5.05;;;;;;;13.11;61.03;96599.91;1779321;80;21030;-87
2022/05/17 04:04:21;;;;;;;9.15;5.22;;;;;;;13.12;61.12;96588.97;1765247;80;20973;-86
2022/05/17 04:06:47;;;;;;;7.00;5.00;;;;;;;13.14;61.54;96593.00;1784440;80;20977;-86
2022/05/17 04:09:13;;;;;;;7.67;4.45;;;;;;;13.18;61.41;96594.77;1775687;80;21018;-87
2022/05/17 04:11:39;;;;;;;6.50;4.28;;;;;;;13.22;61.73;96594.69;1772530;80;21064;-87
2022/05/17 04:14:05;;;;;;;6.20;3.50;;;;;;;13.24;61.78;96594.00;1714464;81;21022;-86
2022/05/17 04:16:33;;;;;;;5.30;3.10;;;;;;;13.27;61.65;96595.41;1768747;80;21417;-86
2022/05/17 04:18:59;;;;;;;4.17;2.58;;;;;;;13.30;61.61;96591.91;1750944;80;21035;-86
2022/05/17 04:21:25;;;;;;;4.25;2.70;;;;;;;13.34;61.45;96591.02;1756423;80;21451;-86
2022/05/17 04:23:52;;;;;;;4.33;2.75;;;;;;;13.38;61.59;96590.45;1771798;80;21006;-86
2022/05/17 04:26:18;;;;;;;3.70;2.72;;;;;;;13.41;61.35;96590.06;1788045;80;20983;-87
2022/05/17 04:28:44;;;;;;;3.42;2.47;;;;;;;13.45;61.78;96591.28;1763034;80;21499;-86
2022/05/17 04:31:10;;;;;;;5.45;2.60;;;;;;;13.49;62.04;96585.16;1775704;80;21067;-86
2022/05/17 04:33:36;;;;;;;4.37;2.72;;;;;;;13.56;62.04;96587.81;1773682;80;21087;-87
2022/05/17 04:36:02;;;;;;;4.80;2.20;;;;;;;13.63;62.21;96589.94;1770266;80;20951;-87
2022/05/17 04:38:28;;;;;;;5.10;2.30;;;;;;;13.50;62.38;96564.58;1766415;79;21076;-87
2022/05/17 04:40:54;;;;;;;4.47;2.30;;;;;;;13.79;62.52;96595.62;1764217;80;21389;-87
2022/05/17 04:43:21;;;;;;;3.95;1.87;;;;;;;13.87;62.91;96588.63;1778213;79;21020;-86
2022/05/17 04:45:46;;;;;;;2.72;1.87;;;;;;;13.93;62.63;96587.83;1777076;80;21044;-86
2022/05/17 04:48:12;;;;;;;3.87;2.02;;;;;;;14.01;63.18;96592.88;1761861;80;21017;-86
2022/05/17 21:55:52;;;;;;;;;;;;;;;;;;;;;
2022/05/17 22:09:51;;;;;;;;;;;;;;;;;;;;;
2022/05/17 23:09:27;;;;;;;;;;;;;;;;;;;;;
